CheckWX is a tool to help pilots better visualize weather data.  It is not intended as a substitute for an official pre-flight weather briefing.

15:42:05 UTC

KSQI METAR
Whiteside Co Arpt-Jos H Bittorf Field Airport
Sterling/Rockfalls, Illinois, USA
Current

4 hours ago

KSQI 261156Z AUTO 18/18 RMK AO2 RAB08E18B53RAEMM SLPNO 6//// 7//// T01830178 PWINO RVRNO $
Observed
May-26 @ 11:56 UTC
Visibility
Temperature
18°C / 64°F
Dewpoint
18°C / 64°F
Humidity
100%
Previous

6 hours ago

KSQI 261011Z AUTO TS RMK AO2 LTG DSNT S AND SW TSB05RAB0958RAEMM P0003 PWINO FZRANO RVRNO $
Observed
May-26 @ 10:11 UTC
Visibility
Conditions
Thunderstorm
Current Rain
0.03"
Previous

7 hours ago

KSQI 260856Z AUTO 25004KT 10SM 18/18 A3001 RMK AO2 LTG DSNT W RAE32 SLP025 P0001 60001 T01830178 53012
Observed
May-26 @ 08:56 UTC
Wind
  • 250° at 4 KTS
Visibility
10 SM
Temperature
18°C / 64°F
Dewpoint
18°C / 64°F
Humidity
100%
Altimeter
30.01" Hg
Pressure
1016.22 hPa
Current Rain
0.01"